Airport View

Enter AWOS ICAO identifier for current METAR.

ex. KFNL

KBPK 080353Z AUTO 00000KT 10SM CLR 24/22 A2997 RMK AO2 SLP137 T02390222

8 Jul 2020 04:36

Frequency: 133.975

Phone: 870-481-5946

Other Area AWOS: KFLP - KHRO - KBBG - KUNO

TAF KBPK 072323Z 0800/0824 VRB06KT P6SM VCTS SCT040CB SCT250 FM080300 VRB03KT P6SM SCT250 FM081500 14007KT P6SM SCT040 SCT120